createdAt,value
2019-04-10T03:45:00.407Z,0.00
2019-04-10T03:46:01.289Z,0.00
2019-04-10T03:47:00.808Z,0.00
2019-04-10T03:48:00.370Z,0.00
2019-04-10T03:49:01.227Z,0.00
2019-04-10T03:52:01.028Z,0.00
2019-04-10T03:53:00.316Z,0.00
2019-04-10T03:54:00.306Z,0.00
2019-04-10T03:55:00.710Z,0.00
2019-04-10T03:56:01.177Z,0.00
2019-04-10T03:57:00.433Z,0.00
2019-04-10T03:58:00.808Z,0.00
2019-04-10T03:59:00.265Z,0.00
2019-04-10T04:00:01.450Z,0.00
2019-04-10T04:01:00.723Z,0.00
2019-04-10T04:02:00.212Z,0.00
2019-04-10T04:03:00.291Z,0.00
2019-04-10T04:04:00.193Z,0.00
2019-04-10T04:05:00.266Z,0.00
2019-04-10T04:06:00.266Z,0.00
2019-04-10T04:07:00.157Z,0.00
2019-04-10T04:08:01.212Z,0.00
2019-04-10T04:09:07.300Z,0.00
2019-04-10T04:10:24.672Z,0.00
2019-04-10T04:11:24.595Z,0.00
2019-04-10T04:12:24.816Z,0.00
2019-04-10T04:13:25.678Z,0.00
2019-04-10T04:14:24.563Z,0.00
2019-04-10T04:15:24.561Z,0.00
2019-04-10T04:16:24.766Z,0.00
2019-04-10T04:17:24.537Z,0.00
2019-04-10T04:18:24.881Z,0.00
2019-04-10T04:19:24.510Z,0.00
2019-04-10T04:20:24.501Z,0.00
2019-04-10T04:21:24.486Z,0.00
2019-04-10T04:22:24.990Z,5.62
2019-04-10T04:23:24.463Z,5.62
2019-04-10T04:24:25.505Z,5.62
2019-04-10T04:25:24.439Z,5.62
2019-04-10T04:26:25.302Z,5.62
2019-04-10T04:27:25.045Z,5.62
2019-04-10T04:28:24.408Z,5.62
2019-04-10T04:29:24.725Z,5.62
2019-04-10T04:30:24.692Z,5.62
2019-04-10T04:31:24.968Z,5.62
2019-04-10T04:32:24.593Z,11.25
2019-04-10T04:33:24.397Z,11.25
2019-04-10T04:34:25.027Z,11.25
2019-04-10T04:35:24.327Z,11.25
2019-04-10T04:36:24.599Z,11.25
2019-04-10T04:37:24.531Z,16.87
2019-04-10T04:38:24.299Z,16.87
2019-04-10T04:39:26.954Z,16.87
2019-04-10T04:40:24.300Z,16.87
2019-04-10T04:41:25.253Z,16.87
2019-04-10T04:42:24.519Z,16.87
2019-04-10T04:43:25.127Z,22.50
2019-04-10T04:44:24.228Z,22.50
2019-04-10T04:45:24.226Z,22.50
2019-04-10T04:46:24.216Z,22.50
2019-04-10T04:47:24.480Z,22.50
2019-04-10T04:48:24.353Z,28.12
2019-04-10T04:49:24.410Z,28.12
2019-04-10T04:50:24.711Z,28.12
2019-04-10T04:51:25.864Z,33.75
2019-04-10T04:52:24.147Z,33.75
2019-04-10T04:53:24.133Z,33.75
2019-04-10T04:54:24.117Z,39.37
2019-04-10T04:55:24.108Z,39.37
2019-04-10T04:56:24.102Z,45.00
2019-04-10T04:57:24.513Z,45.00
2019-04-10T04:58:24.391Z,50.62
2019-04-10T04:59:24.074Z,50.62
2019-04-10T05:00:24.060Z,50.62
2019-04-10T05:01:24.054Z,56.25
2019-04-10T05:02:24.129Z,56.25
2019-04-10T05:03:25.587Z,56.25
2019-04-10T05:04:25.046Z,61.87
2019-04-10T05:05:25.010Z,61.87
2019-04-10T05:06:24.337Z,61.87
2019-04-10T05:07:24.725Z,67.50
2019-04-10T05:08:23.965Z,67.50
2019-04-10T05:09:33.046Z,67.50
2019-04-10T05:10:49.555Z,73.12
2019-04-10T05:11:48.948Z,78.75
2019-04-10T05:12:49.475Z,78.75
2019-04-10T05:13:48.958Z,84.37
2019-04-10T05:14:48.379Z,90.00
2019-04-10T05:15:49.217Z,90.00
2019-04-10T05:16:48.351Z,90.00
2019-04-10T05:17:49.314Z,95.62
2019-04-10T05:18:48.328Z,95.62
2019-04-10T05:19:48.322Z,101.25
2019-04-10T05:20:50.466Z,101.25
2019-04-10T05:21:48.295Z,106.87
2019-04-10T05:22:49.209Z,118.12
2019-04-10T05:23:49.278Z,129.37
2019-04-10T05:24:48.837Z,135.00
2019-04-10T05:25:48.270Z,129.37
2019-04-10T05:26:49.086Z,123.75
2019-04-10T05:27:49.033Z,123.75
2019-04-10T05:28:48.629Z,123.75
2019-04-10T05:29:48.223Z,123.75
2019-04-10T05:30:48.231Z,123.75
2019-04-10T05:31:48.939Z,123.75
2019-04-10T05:32:49.164Z,129.37
2019-04-10T05:33:49.143Z,129.37
2019-04-10T05:34:48.153Z,129.37
2019-04-10T05:35:48.823Z,129.37
2019-04-10T05:36:49.139Z,135.00
2019-04-10T05:37:48.122Z,135.00
2019-04-10T05:38:48.274Z,146.25
2019-04-10T05:39:50.782Z,163.12
2019-04-10T05:40:48.523Z,151.87
2019-04-10T05:41:48.467Z,146.25
2019-04-10T05:42:49.062Z,151.87
2019-04-10T05:43:48.907Z,174.37
2019-04-10T05:44:48.050Z,196.87
2019-04-10T05:45:48.628Z,208.12
2019-04-10T05:46:49.133Z,213.75
2019-04-10T05:47:48.015Z,208.12
2019-04-10T05:48:49.046Z,208.12
2019-04-10T05:49:49.070Z,213.75
2019-04-10T05:50:56.669Z,236.25
2019-04-10T05:52:12.703Z,174.37
2019-04-10T05:53:12.487Z,157.50
2019-04-10T05:54:12.843Z,191.25
2019-04-10T05:55:12.458Z,185.62
2019-04-10T05:56:12.447Z,163.12
2019-04-10T05:57:12.513Z,157.50
2019-04-10T05:58:13.377Z,151.87
2019-04-10T05:59:13.617Z,151.87
2019-04-10T06:00:12.489Z,208.12
2019-04-10T06:01:13.501Z,157.50
2019-04-10T06:02:12.382Z,163.12
2019-04-10T06:03:12.424Z,168.75
2019-04-10T06:04:13.294Z,174.37
2019-04-10T06:06:12.566Z,180.00
2019-04-10T06:07:12.757Z,185.62
2019-04-10T06:08:12.319Z,191.25
2019-04-10T06:09:12.306Z,202.50
2019-04-10T06:10:13.303Z,202.50
2019-04-10T06:11:13.610Z,213.75
2019-04-10T06:12:12.268Z,230.62
2019-04-10T06:13:12.984Z,270.00
2019-04-10T06:14:12.254Z,315.00
2019-04-10T06:15:12.836Z,315.00
2019-04-10T06:16:12.225Z,281.25
2019-04-10T06:17:12.418Z,286.87
2019-04-10T06:18:12.793Z,303.75
2019-04-10T06:19:12.200Z,360.00
2019-04-10T06:20:14.054Z,343.12
2019-04-10T06:21:12.545Z,315.00
2019-04-10T06:22:12.757Z,298.12
2019-04-10T06:23:15.005Z,298.12
2019-04-10T06:24:12.138Z,298.12
2019-04-10T06:25:15.275Z,303.75
2019-04-10T06:26:12.727Z,292.50
2019-04-10T06:27:12.336Z,286.87
2019-04-10T06:28:12.918Z,281.25
2019-04-10T06:29:12.857Z,360.00
2019-04-10T06:30:12.194Z,292.50
2019-04-10T06:31:12.525Z,281.25
2019-04-10T06:32:12.046Z,281.25
2019-04-10T06:33:12.048Z,292.50
2019-04-10T06:34:14.317Z,281.25
2019-04-10T06:35:12.012Z,286.87
2019-04-10T06:36:13.189Z,292.50
2019-04-10T06:37:11.998Z,388.12
2019-04-10T06:38:12.747Z,444.37
2019-04-10T06:39:12.929Z,298.12
2019-04-10T06:40:18.744Z,309.37
2019-04-10T06:41:36.883Z,326.25
2019-04-10T06:42:46.203Z,331.87
2019-04-10T06:43:37.435Z,568.12
2019-04-10T06:44:36.473Z,736.87
2019-04-10T06:45:36.387Z,618.75
2019-04-10T06:46:38.890Z,635.62
2019-04-10T06:47:36.363Z,596.25
2019-04-10T06:48:36.350Z,708.75
2019-04-10T06:49:36.624Z,765.00
2019-04-10T06:50:37.097Z,545.62
2019-04-10T06:51:37.509Z,416.25
2019-04-10T06:52:36.309Z,405.00
2019-04-10T06:53:37.331Z,416.25
2019-04-10T06:54:36.486Z,455.62
2019-04-10T06:55:36.514Z,579.37
2019-04-10T06:56:36.264Z,472.50
2019-04-10T06:57:48.036Z,646.87
2019-04-10T06:59:00.762Z,883.12
2019-04-10T07:00:00.836Z,613.12
2019-04-10T07:01:01.842Z,478.12
2019-04-10T07:02:14.145Z,500.62
2019-04-10T07:03:38.026Z,731.25
2019-04-10T07:04:26.613Z,545.62
2019-04-10T07:05:36.584Z,596.25
2019-04-10T07:06:39.300Z,579.37
2019-04-10T07:07:40.715Z,871.87
2019-04-10T07:08:50.871Z,956.25
2019-04-10T07:09:49.655Z,534.37
2019-04-10T07:10:54.615Z,528.75
2019-04-10T07:12:14.533Z,708.75
2019-04-10T07:13:14.020Z,928.12
2019-04-10T07:14:14.471Z,714.37
2019-04-10T07:15:16.909Z,624.37
2019-04-10T07:16:15.927Z,877.50
2019-04-10T07:17:14.504Z,1158.75
2019-04-10T07:18:16.995Z,1141.87
2019-04-10T07:19:13.955Z,1164.37
2019-04-10T07:20:17.636Z,1085.62
2019-04-10T07:21:14.674Z,1018.12
2019-04-10T07:22:14.724Z,669.37
2019-04-10T07:23:15.625Z,517.50
2019-04-10T07:24:15.489Z,500.62
2019-04-10T07:25:15.471Z,500.62
2019-04-10T07:26:18.511Z,489.37
2019-04-10T07:27:40.049Z,478.12
2019-04-10T07:28:41.505Z,483.75
2019-04-10T07:29:38.401Z,483.75
2019-04-10T07:30:38.305Z,489.37
2019-04-10T07:31:39.526Z,511.87
2019-04-10T07:32:42.130Z,585.00
